0PA1 weather

Phoenix Technologies Heliport
Norristown, Pennsylvania, United States

Public forecast

Using degrees Fahrenheit for public forecast. Weather courtesy of forecast.io.

METAR (pilot weather report)

Closest report is Wings Field, 6.4 nm (11.8 km) E. Retrieved 2019/07/22 16:55 UTC (1 hour ago):

KLOM 221655Z AUTO 24005KT 10SM BKN041 BKN049 BKN070 32/23 A2980 RMK AO2 T03160226

TAF (pilot weather forecast)

Closest forecast is Philadelphia International Airport, 16.5 nm (30.6 km) SSE. Retrieved 2019/07/22 18:57 UTC (0 seconds ago):

TAF KPHL 221750Z 2218/2324 22010KT P6SM SCT050 FM222000 25010G18KT 6SM SHRA BKN050 TEMPO 2220/2223 28025G40KT 1SM +TSRA OVC035CB FM222300 29010KT 6SM SHRA VCTS SCT030 OVC050CB FM230500 33006KT 4SM SHRA BR SCT010 OVC020 FM230800 VRB02KT 6SM SHRA OVC015 FM231600 33008KT P6SM OVC020 FM231900 30006KT P6SM OVC035